createdAt,value
2023-01-29T00:00:00.595Z,3
2023-01-29T00:05:07.305Z,2
2023-01-29T00:10:00.536Z,2
2023-01-29T00:15:00.539Z,3
2023-01-29T00:20:00.550Z,3
2023-01-29T00:25:00.546Z,3
2023-01-29T00:30:00.563Z,3
2023-01-29T00:35:00.622Z,3
2023-01-29T00:40:00.553Z,2
2023-01-29T00:45:00.499Z,2
2023-01-29T00:50:00.548Z,3
2023-01-29T00:55:00.722Z,3
2023-01-29T01:00:00.548Z,3
2023-01-29T01:05:00.527Z,3
2023-01-29T01:10:00.552Z,3
2023-01-29T01:15:00.511Z,3
2023-01-29T01:20:00.570Z,4
2023-01-29T01:25:00.513Z,3
2023-01-29T01:30:00.528Z,4
2023-01-29T01:35:00.530Z,3
2023-01-29T01:40:00.546Z,3
2023-01-29T01:45:00.531Z,4
2023-01-29T01:50:00.547Z,4
2023-01-29T01:55:00.559Z,3
2023-01-29T02:00:00.577Z,4
2023-01-29T02:05:00.553Z,3
2023-01-29T02:10:02.394Z,4
2023-01-29T02:15:00.588Z,3
2023-01-29T02:20:00.531Z,4
2023-01-29T02:25:00.501Z,4
2023-01-29T02:30:00.521Z,1
2023-01-29T02:35:00.541Z,3
2023-01-29T02:40:00.527Z,2
2023-01-29T02:45:00.533Z,3
2023-01-29T02:50:00.536Z,3
2023-01-29T02:55:00.518Z,2
2023-01-29T03:00:00.653Z,4
2023-01-29T03:05:00.530Z,3
2023-01-29T03:10:00.534Z,3
2023-01-29T03:15:00.517Z,4
2023-01-29T03:20:00.544Z,2
2023-01-29T03:25:00.567Z,4
2023-01-29T03:30:00.527Z,4
2023-01-29T03:35:00.580Z,4
2023-01-29T03:40:00.539Z,3
2023-01-29T03:45:00.510Z,2
2023-01-29T03:50:00.582Z,4
2023-01-29T03:55:00.532Z,2
2023-01-29T04:00:00.527Z,3
2023-01-29T04:05:00.537Z,3
2023-01-29T04:10:00.548Z,3
2023-01-29T04:15:00.537Z,3
2023-01-29T04:20:00.622Z,3
2023-01-29T04:25:00.542Z,4
2023-01-29T04:30:00.544Z,2
2023-01-29T04:35:00.644Z,2
2023-01-29T04:40:00.532Z,4
2023-01-29T04:50:00.549Z,3
2023-01-29T04:55:00.508Z,4
2023-01-29T05:00:00.656Z,3
2023-01-29T05:05:00.507Z,3
2023-01-29T05:10:00.533Z,3
2023-01-29T05:15:00.548Z,3
2023-01-29T05:20:00.518Z,3
2023-01-29T05:25:00.527Z,2
2023-01-29T05:30:00.520Z,3
2023-01-29T05:35:00.549Z,3
2023-01-29T05:45:00.584Z,2
2023-01-29T05:50:00.581Z,2
2023-01-29T05:55:00.581Z,3
2023-01-29T06:00:00.565Z,3
2023-01-29T06:05:00.505Z,2
2023-01-29T06:10:00.521Z,2
2023-01-29T06:15:00.497Z,3
2023-01-29T06:20:00.546Z,3
2023-01-29T06:25:00.502Z,4
2023-01-29T06:30:00.565Z,3
2023-01-29T06:35:00.523Z,3
2023-01-29T06:40:00.533Z,3
2023-01-29T06:45:00.568Z,4
2023-01-29T06:50:00.548Z,3
2023-01-29T06:55:00.545Z,3
2023-01-29T07:00:00.546Z,3
2023-01-29T07:05:00.539Z,3
2023-01-29T07:10:00.552Z,4
2023-01-29T07:15:00.521Z,2
2023-01-29T07:20:00.527Z,3
2023-01-29T07:25:00.491Z,4
2023-01-29T07:30:00.665Z,4
2023-01-29T07:35:00.519Z,3
2023-01-29T07:40:00.549Z,4
2023-01-29T07:45:00.527Z,4
2023-01-29T07:50:00.523Z,3
2023-01-29T07:55:00.504Z,4
2023-01-29T08:00:00.551Z,3
2023-01-29T08:05:00.530Z,4
2023-01-29T08:10:00.525Z,4
2023-01-29T08:15:00.571Z,4
2023-01-29T08:20:00.656Z,4
2023-01-29T08:25:08.094Z,4
2023-01-29T08:30:00.558Z,4
2023-01-29T08:35:00.512Z,3
2023-01-29T08:40:00.565Z,5
2023-01-29T08:45:00.572Z,4
2023-01-29T08:50:00.535Z,5
2023-01-29T08:55:00.562Z,4
2023-01-29T09:00:00.523Z,5
2023-01-29T09:05:00.525Z,4
2023-01-29T09:10:00.546Z,4
2023-01-29T09:15:00.540Z,4
2023-01-29T09:20:00.565Z,4
2023-01-29T09:25:00.529Z,5
2023-01-29T09:30:00.561Z,5
2023-01-29T09:35:00.521Z,5
2023-01-29T09:40:00.562Z,5
2023-01-29T09:45:00.751Z,4
2023-01-29T09:50:00.551Z,5
2023-01-29T09:55:00.533Z,4
2023-01-29T10:00:00.611Z,5
2023-01-29T10:05:00.573Z,4
2023-01-29T10:10:00.557Z,5
2023-01-29T10:15:00.530Z,3
2023-01-29T10:20:00.584Z,5
2023-01-29T10:25:00.633Z,4
2023-01-29T10:30:00.581Z,4
2023-01-29T10:35:00.557Z,4
2023-01-29T10:40:00.553Z,4
2023-01-29T10:45:00.610Z,4
2023-01-29T10:50:00.553Z,4
2023-01-29T10:55:00.605Z,3
2023-01-29T11:00:00.552Z,4
2023-01-29T11:05:00.506Z,5
2023-01-29T11:10:00.531Z,5
2023-01-29T11:15:00.515Z,4
2023-01-29T11:20:00.581Z,4
2023-01-29T11:25:00.556Z,4
2023-01-29T11:30:00.631Z,4
2023-01-29T11:35:00.507Z,5
2023-01-29T11:40:00.546Z,5
2023-01-29T11:45:00.553Z,4
2023-01-29T11:50:00.575Z,4
2023-01-29T11:55:00.540Z,4
2023-01-29T12:00:02.568Z,4
2023-01-29T12:05:00.543Z,3
2023-01-29T12:10:00.554Z,5
2023-01-29T12:15:00.563Z,4
2023-01-29T12:20:02.552Z,6
2023-01-29T12:25:02.932Z,3
2023-01-29T12:30:02.529Z,5
2023-01-29T12:35:00.645Z,4
2023-01-29T12:40:00.556Z,6
2023-01-29T12:45:00.626Z,4
2023-01-29T12:50:00.586Z,5
2023-01-29T12:55:00.573Z,5
2023-01-29T13:00:00.525Z,5
2023-01-29T13:05:00.554Z,5
2023-01-29T13:10:00.508Z,5
2023-01-29T13:15:00.545Z,5
2023-01-29T13:20:00.566Z,6
2023-01-29T13:25:04.946Z,3
2023-01-29T13:30:00.568Z,3
2023-01-29T13:35:00.568Z,5
2023-01-29T13:40:00.563Z,4
2023-01-29T13:45:00.558Z,4
2023-01-29T13:50:00.547Z,5
2023-01-29T13:55:00.546Z,5
2023-01-29T14:00:00.626Z,4
2023-01-29T14:05:00.525Z,4
2023-01-29T14:10:00.580Z,4
2023-01-29T14:15:00.637Z,5
2023-01-29T14:20:00.572Z,4
2023-01-29T14:25:00.660Z,4
2023-01-29T14:30:00.569Z,3
2023-01-29T14:35:00.509Z,3
2023-01-29T14:40:00.576Z,3
2023-01-29T14:45:00.536Z,3
2023-01-29T14:50:00.555Z,4
2023-01-29T14:55:00.618Z,4
2023-01-29T15:00:00.557Z,4
2023-01-29T15:05:00.535Z,3
2023-01-29T15:10:20.877Z,4
2023-01-29T15:15:00.662Z,4
2023-01-29T15:20:02.672Z,4
2023-01-29T15:25:00.586Z,5
2023-01-29T15:30:00.564Z,5
2023-01-29T15:35:00.540Z,5
2023-01-29T15:40:00.534Z,4
2023-01-29T15:45:00.686Z,5
2023-01-29T15:50:00.669Z,5
2023-01-29T15:55:00.733Z,5
2023-01-29T16:00:00.669Z,4
2023-01-29T16:05:02.568Z,5
2023-01-29T16:10:00.604Z,4
2023-01-29T16:15:00.546Z,5
2023-01-29T16:20:02.548Z,6
2023-01-29T16:25:00.529Z,5
2023-01-29T16:30:02.620Z,6
2023-01-29T16:35:00.518Z,6
2023-01-29T16:40:00.551Z,4
2023-01-29T16:45:00.617Z,6
2023-01-29T16:50:02.536Z,7
2023-01-29T16:55:00.581Z,6
2023-01-29T17:00:00.576Z,5
2023-01-29T17:05:00.533Z,5
2023-01-29T17:10:00.547Z,5
2023-01-29T17:15:00.554Z,4
2023-01-29T17:20:00.551Z,5
2023-01-29T17:25:02.602Z,4
2023-01-29T17:30:00.660Z,4
2023-01-29T17:35:00.725Z,5
2023-01-29T17:40:00.581Z,5
2023-01-29T17:45:02.545Z,6
2023-01-29T17:50:00.507Z,4
2023-01-29T17:55:00.523Z,5
2023-01-29T18:00:00.551Z,5
2023-01-29T18:05:00.601Z,6
2023-01-29T18:10:00.534Z,6
2023-01-29T18:15:00.720Z,5
2023-01-29T18:20:00.541Z,6
2023-01-29T18:25:00.690Z,5
2023-01-29T18:30:00.540Z,7
2023-01-29T18:35:00.571Z,6
2023-01-29T18:40:00.545Z,5
2023-01-29T18:45:00.581Z,5
2023-01-29T18:50:00.686Z,6
2023-01-29T18:55:00.605Z,6
2023-01-29T19:00:00.611Z,5
2023-01-29T19:05:00.531Z,5
2023-01-29T19:10:02.579Z,5
2023-01-29T19:15:00.528Z,5
2023-01-29T19:20:00.633Z,5
2023-01-29T19:25:00.582Z,5
2023-01-29T19:30:00.624Z,4
2023-01-29T19:35:02.682Z,5
2023-01-29T19:40:00.527Z,5
2023-01-29T19:45:00.559Z,4
2023-01-29T19:50:00.547Z,4
2023-01-29T19:55:00.496Z,6
2023-01-29T20:00:00.550Z,4
2023-01-29T20:05:00.494Z,5
2023-01-29T20:10:00.540Z,5
2023-01-29T20:15:00.523Z,5
2023-01-29T20:20:03.359Z,5
2023-01-29T20:25:00.546Z,6
2023-01-29T20:30:00.574Z,5
2023-01-29T20:35:00.538Z,7
2023-01-29T20:40:02.592Z,6
2023-01-29T20:45:00.511Z,5
2023-01-29T20:50:00.643Z,6
2023-01-29T20:55:00.524Z,6
2023-01-29T21:00:00.548Z,7
2023-01-29T21:05:00.541Z,5
2023-01-29T21:10:00.724Z,4
2023-01-29T21:15:00.791Z,6
2023-01-29T21:20:01.275Z,5
2023-01-29T21:25:02.832Z,5
2023-01-29T21:30:02.539Z,5
2023-01-29T21:35:00.517Z,7
2023-01-29T21:40:00.537Z,6
2023-01-29T21:45:00.562Z,6
2023-01-29T21:50:00.581Z,6
2023-01-29T21:55:03.069Z,6
2023-01-29T22:00:00.564Z,6
2023-01-29T22:05:16.291Z,6
2023-01-29T22:10:02.713Z,7
2023-01-29T22:15:00.544Z,7
2023-01-29T22:20:00.558Z,6
2023-01-29T22:25:00.559Z,6
2023-01-29T22:30:00.563Z,7
2023-01-29T22:35:00.557Z,6
2023-01-29T22:40:00.582Z,8
2023-01-29T22:45:00.522Z,6
2023-01-29T22:50:00.531Z,7
2023-01-29T22:55:00.502Z,5
2023-01-29T23:00:00.579Z,6
2023-01-29T23:05:00.530Z,5
2023-01-29T23:10:00.508Z,6
2023-01-29T23:15:00.499Z,6
2023-01-29T23:20:00.519Z,7
2023-01-29T23:25:00.503Z,7
2023-01-29T23:30:00.568Z,6
2023-01-29T23:35:00.543Z,5
2023-01-29T23:40:00.540Z,5
2023-01-29T23:45:00.520Z,5
2023-01-29T23:50:00.524Z,5
2023-01-29T23:55:00.535Z,8
